Time;durP1;ratioP1;P1;durP2;ratioP2;P2;SDS_P1;SDS_P2;PMS_P1;PMS_P2;Temp;Humidity;BMP_temperature;BMP_pressure;BME280_temperature;BME280_humidity;BME280_pressure;Samples;Min_cycle;Max_cycle;Signal;HPM_P1;HPM_P2
2022/08/24 00:01:26;;;;;;;24.60;22.17;;;18.90;99.90;;;;;;5107726;28;20494;-66
2022/08/24 00:03:54;;;;;;;24.67;22.38;;;18.80;99.90;;;;;;5091810;28;20084;-68
2022/08/24 00:06:21;;;;;;;25.83;23.33;;;18.80;99.90;;;;;;5114559;27;20470;-66
2022/08/24 00:08:48;;;;;;;24.90;22.17;;;18.80;99.90;;;;;;5110738;27;20401;-66
2022/08/24 00:11:15;;;;;;;26.92;24.02;;;18.80;99.90;;;;;;5100581;28;20070;-67
2022/08/24 00:13:41;;;;;;;26.27;23.60;;;18.70;99.90;;;;;;5112173;27;20040;-67
2022/08/24 00:16:08;;;;;;;21.83;19.77;;;18.70;99.90;;;;;;5109767;27;20042;-68
2022/08/24 00:18:34;;;;;;;23.05;20.90;;;18.60;99.90;;;;;;5096656;28;20047;-67
2022/08/24 00:21:00;;;;;;;25.73;23.23;;;18.60;99.90;;;;;;5100929;28;20047;-64
2022/08/24 00:23:27;;;;;;;25.25;22.80;;;18.50;99.90;;;;;;5112725;27;20600;-67
2022/08/24 00:25:53;;;;;;;24.45;22.05;;;18.50;99.90;;;;;;5109062;27;20406;-67
2022/08/24 00:28:19;;;;;;;27.45;24.85;;;18.50;99.90;;;;;;5107429;28;20464;-68
2022/08/24 00:30:45;;;;;;;29.55;26.55;;;18.40;99.90;;;;;;5108643;28;20115;-67
2022/08/24 00:33:10;;;;;;;29.50;25.80;;;18.40;99.90;;;;;;5129042;27;20095;-67
2022/08/24 00:35:36;;;;;;;28.23;25.63;;;18.40;99.90;;;;;;5106986;28;20031;-66
2022/08/24 00:38:02;;;;;;;27.42;24.92;;;18.30;99.90;;;;;;5117702;28;20036;-69
2022/08/24 00:40:34;;;;;;;27.75;25.05;;;18.30;99.90;;;;;;5115450;28;20074;-69
2022/08/24 00:43:03;;;;;;;28.42;25.65;;;18.30;99.90;;;;;;5111656;28;20054;-64
2022/08/24 00:45:41;;;;;;;25.73;23.33;;;18.30;99.90;;;;;;5095401;28;20115;-67
2022/08/24 00:48:18;;;;;;;29.05;26.23;;;18.30;99.90;;;;;;5107953;28;20044;-68
2022/08/24 00:50:52;;;;;;;30.00;27.13;;;18.20;99.90;;;;;;5107370;28;20056;-65
2022/08/24 00:53:29;;;;;;;31.35;28.17;;;18.20;99.90;;;;;;5108068;28;20110;-66
2022/08/24 00:55:59;;;;;;;29.77;26.80;;;18.20;99.90;;;;;;5110093;28;20459;-67
2022/08/24 00:58:36;;;;;;;26.52;23.98;;;18.20;99.90;;;;;;5111580;28;20448;-65
2022/08/24 01:01:05;;;;;;;24.67;22.23;;;18.20;99.90;;;;;;5111737;28;20390;-66
2022/08/24 01:03:32;;;;;;;25.88;23.30;;;18.20;99.90;;;;;;5113145;27;20087;-65
2022/08/24 01:05:58;;;;;;;29.92;26.85;;;18.20;99.90;;;;;;5122217;27;20534;-69
2022/08/24 01:08:24;;;;;;;27.17;24.52;;;18.20;99.90;;;;;;5093657;28;21401;-67
2022/08/24 01:10:55;;;;;;;28.00;25.30;;;18.20;99.90;;;;;;5125292;27;20055;-68
2022/08/24 01:13:23;;;;;;;32.92;29.63;;;18.20;99.90;;;;;;5113422;28;20528;-67
2022/08/24 01:15:51;;;;;;;24.33;22.08;;;18.10;99.90;;;;;;5111943;28;20111;-67
2022/08/24 01:21:16;;;;;;;24.92;22.45;;;18.00;99.90;;;;;;5110728;28;20435;-68
2022/08/24 01:23:45;;;;;;;24.77;22.45;;;18.00;99.90;;;;;;5121507;27;20043;-68
2022/08/24 01:26:17;;;;;;;27.58;25.08;;;17.90;99.90;;;;;;5117594;27;20531;-67
2022/08/24 01:28:46;;;;;;;29.80;26.88;;;17.80;99.90;;;;;;5112814;27;20058;-66
2022/08/24 01:31:12;;;;;;;32.17;28.85;;;17.90;99.90;;;;;;5121376;27;20550;-65
2022/08/24 01:33:38;;;;;;;31.83;28.48;;;17.80;99.90;;;;;;5115113;27;20028;-66
2022/08/24 01:36:44;;;;;;;34.95;31.27;;;17.80;99.90;;;;;;5124103;27;20066;-68
2022/08/24 01:39:24;;;;;;;26.75;24.05;;;17.80;99.90;;;;;;5096327;28;20089;-66
2022/08/24 01:41:50;;;;;;;28.10;25.33;;;17.80;99.90;;;;;;5126874;27;20053;-67
2022/08/24 01:44:17;;;;;;;29.98;27.05;;;17.70;99.90;;;;;;5132882;27;20385;-67
2022/08/24 01:46:44;;;;;;;29.38;26.33;;;17.80;99.90;;;;;;5117769;27;20027;-67
2022/08/24 01:49:10;;;;;;;29.30;26.25;;;17.70;99.90;;;;;;5117899;27;20048;-68
2022/08/24 01:51:36;;;;;;;30.92;27.80;;;17.70;99.90;;;;;;5118808;27;20036;-68
2022/08/24 01:54:03;;;;;;;29.17;26.17;;;17.70;99.90;;;;;;5110574;28;20447;-67
2022/08/24 01:56:30;;;;;;;28.58;25.63;;;17.70;99.90;;;;;;5124243;27;20038;-68
2022/08/24 01:58:56;;;;;;;28.10;25.48;;;17.70;99.90;;;;;;5125910;27;20057;-68
2022/08/24 02:01:24;;;;;;;27.33;24.70;;;17.70;99.90;;;;;;5120842;27;20035;-65
2022/08/24 02:03:49;;;;;;;29.98;27.00;;;17.60;99.90;;;;;;5116166;27;20036;-65
2022/08/24 02:06:17;;;;;;;29.70;26.83;;;17.60;99.90;;;;;;5110625;27;20047;-67
2022/08/24 02:08:43;;;;;;;30.65;27.55;;;17.60;99.90;;;;;;5112095;28;20046;-70
2022/08/24 02:11:09;;;;;;;29.95;27.10;;;17.60;99.90;;;;;;5112512;27;20040;-70
2022/08/24 02:13:37;;;;;;;29.02;26.13;;;17.60;99.90;;;;;;5111708;27;20043;-67
2022/08/24 02:16:04;;;;;;;29.65;26.77;;;17.60;99.90;;;;;;5109829;28;20054;-68
2022/08/24 02:18:30;;;;;;;31.85;28.73;;;17.60;99.90;;;;;;5116260;27;20078;-67
2022/08/24 02:20:56;;;;;;;31.80;28.50;;;17.50;99.90;;;;;;5110923;28;20090;-67
2022/08/24 02:23:22;;;;;;;30.63;27.65;;;17.50;99.90;;;;;;5118978;27;20086;-68
2022/08/24 02:25:47;;;;;;;27.88;25.17;;;17.50;99.90;;;;;;5116856;27;20075;-68
2022/08/24 02:28:13;;;;;;;26.77;24.17;;;17.50;99.90;;;;;;5130892;27;20034;-67
2022/08/24 02:30:39;;;;;;;28.23;25.42;;;17.50;99.90;;;;;;5114588;27;20549;-67
2022/08/24 02:33:06;;;;;;;27.67;25.08;;;17.50;99.90;;;;;;5115421;27;20052;-66
2022/08/24 02:35:33;;;;;;;28.67;25.88;;;17.40;99.90;;;;;;5120068;27;20043;-67
2022/08/24 02:37:59;;;;;;;27.50;25.00;;;17.40;99.90;;;;;;5094178;28;20039;-66
2022/08/24 02:40:24;;;;;;;27.52;24.92;;;17.40;99.90;;;;;;5114549;27;20504;-68
2022/08/24 02:42:50;;;;;;;29.80;26.80;;;17.30;99.90;;;;;;5110111;28;20032;-67
2022/08/24 02:45:16;;;;;;;26.00;23.48;;;17.30;99.90;;;;;;5127707;27;20039;-68
2022/08/24 02:47:42;;;;;;;25.75;23.33;;;17.30;99.90;;;;;;5110453;28;20416;-68
2022/08/24 02:50:11;;;;;;;25.63;23.33;;;17.20;99.90;;;;;;5130826;27;20168;-68
2022/08/24 02:52:38;;;;;;;27.15;24.55;;;17.30;99.90;;;;;;5108256;28;20059;-66
2022/08/24 02:55:05;;;;;;;25.60;23.17;;;17.30;99.90;;;;;;5112797;27;20047;-67
2022/08/24 02:57:31;;;;;;;24.33;22.13;;;17.20;99.90;;;;;;5109683;28;20035;-67
2022/08/24 02:59:56;;;;;;;25.35;22.95;;;17.20;99.90;;;;;;5128507;27;20050;-67
2022/08/24 03:02:22;;;;;;;24.65;22.38;;;17.10;99.90;;;;;;5123546;27;20031;-66
2022/08/24 03:04:48;;;;;;;25.52;23.02;;;17.20;99.90;;;;;;5110481;28;20077;-66
2022/08/24 03:07:13;;;;;;;23.50;21.15;;;17.20;99.90;;;;;;5122195;27;20069;-66
2022/08/24 03:09:39;;;;;;;23.10;21.08;;;17.20;99.90;;;;;;5130219;27;20043;-67
2022/08/24 03:12:05;;;;;;;24.70;22.40;;;17.10;99.90;;;;;;5113092;27;20046;-67
2022/08/24 03:14:30;;;;;;;27.52;24.95;;;17.10;99.90;;;;;;5109791;28;20482;-67
2022/08/24 03:16:56;;;;;;;27.05;24.50;;;17.10;99.90;;;;;;5111237;27;20504;-67
2022/08/24 03:19:22;;;;;;;28.20;25.65;;;17.10;99.90;;;;;;5112991;27;20038;-66
2022/08/24 03:21:48;;;;;;;23.92;21.73;;;17.10;99.90;;;;;;5114018;27;20043;-65
2022/08/24 03:24:13;;;;;;;23.30;21.00;;;17.10;99.90;;;;;;5109559;28;20399;-67
2022/08/24 03:26:39;;;;;;;31.02;27.92;;;17.10;99.90;;;;;;5115254;27;20072;-66
2022/08/24 03:29:05;;;;;;;30.90;27.85;;;17.00;99.90;;;;;;5109827;27;20040;-68
2022/08/24 03:31:31;;;;;;;27.85;25.20;;;17.00;99.90;;;;;;5111133;28;20436;-68
2022/08/24 03:33:56;;;;;;;28.08;25.40;;;17.00;99.90;;;;;;5117573;27;20039;-68
2022/08/24 03:36:22;;;;;;;31.88;28.50;;;17.00;99.90;;;;;;5108804;27;20047;-66
2022/08/24 03:38:47;;;;;;;33.38;29.98;;;17.00;99.90;;;;;;5109058;28;20040;-70
2022/08/24 03:41:13;;;;;;;29.67;26.92;;;17.00;99.90;;;;;;5119266;27;20097;-67
2022/08/24 03:43:45;;;;;;;30.92;27.85;;;17.00;99.90;;;;;;5113152;27;20054;-68
2022/08/24 03:46:12;;;;;;;;;;;17.00;99.90;;;;;;5120755;27;20027;-69
2022/08/24 03:48:39;;;;;;;28.15;25.35;;;17.00;99.90;;;;;;5121494;27;20002;-66
2022/08/24 03:51:15;;;;;;;33.33;30.02;;;17.00;99.90;;;;;;5106522;28;20127;-67
2022/08/24 03:53:41;;;;;;;30.35;27.42;;;17.00;99.90;;;;;;5113022;27;20035;-67
2022/08/24 03:56:08;;;;;;;32.15;28.92;;;17.00;99.90;;;;;;5108328;28;20088;-67
2022/08/24 03:58:38;;;;;;;30.27;27.17;;;17.00;99.90;;;;;;5116804;27;20051;-68
2022/08/24 04:01:04;;;;;;;31.17;28.08;;;17.00;99.90;;;;;;5112655;27;20401;-65
2022/08/24 04:03:33;;;;;;;30.23;27.25;;;17.00;99.90;;;;;;5111245;27;20195;-68
2022/08/24 04:06:00;;;;;;;27.95;25.25;;;17.00;99.90;;;;;;5113842;27;20393;-66
2022/08/24 04:08:25;;;;;;;29.50;26.67;;;17.00;99.90;;;;;;5126274;27;20043;-68
2022/08/24 04:10:53;;;;;;;27.05;24.45;;;17.00;99.90;;;;;;5109784;28;20039;-66
2022/08/24 04:13:19;;;;;;;28.40;25.70;;;17.00;99.90;;;;;;5109609;27;20119;-69
2022/08/24 04:15:45;;;;;;;34.78;30.85;;;16.90;99.90;;;;;;5118897;27;20456;-65
2022/08/24 04:18:11;;;;;;;27.10;24.50;;;16.90;99.90;;;;;;5129910;27;20119;-67
2022/08/24 04:20:41;;;;;;;27.83;25.00;;;16.90;99.90;;;;;;5110703;27;20063;-67
2022/08/24 04:23:09;;;;;;;22.95;20.67;;;16.80;99.90;;;;;;5118734;27;20039;-67
2022/08/24 04:25:39;;;;;;;22.30;20.25;;;16.80;99.90;;;;;;5113372;27;20389;-67
2022/08/24 04:28:05;;;;;;;22.65;20.50;;;16.80;99.90;;;;;;5107286;28;20529;-69
2022/08/24 04:30:31;;;;;;;22.67;20.50;;;16.70;99.90;;;;;;5109624;27;20169;-67
2022/08/24 04:32:57;;;;;;;22.42;20.35;;;16.70;99.90;;;;;;5107524;28;20106;-66
2022/08/24 04:35:22;;;;;;;22.50;20.38;;;16.70;99.90;;;;;;5117984;28;20044;-67
2022/08/24 04:37:48;;;;;;;22.52;20.52;;;16.70;99.90;;;;;;5109863;28;20492;-67
2022/08/24 04:40:14;;;;;;;23.52;21.20;;;16.60;99.90;;;;;;5112426;28;20074;-65
2022/08/24 04:42:40;;;;;;;23.85;21.55;;;16.60;99.90;;;;;;5106493;28;20052;-66
2022/08/24 04:45:06;;;;;;;21.77;19.58;;;16.60;99.90;;;;;;5112660;27;20053;-66
2022/08/24 04:47:31;;;;;;;22.88;20.55;;;16.60;99.90;;;;;;5105352;28;20458;-67
2022/08/24 04:49:57;;;;;;;23.00;20.90;;;16.50;99.90;;;;;;5110229;28;20114;-67
2022/08/24 04:52:23;;;;;;;23.50;21.20;;;16.50;99.90;;;;;;5106526;28;20036;-65
2022/08/24 04:54:49;;;;;;;24.38;21.98;;;16.50;99.90;;;;;;5113704;28;20486;-66
2022/08/24 04:57:14;;;;;;;24.70;22.33;;;16.50;99.90;;;;;;5106621;28;20043;-69
2022/08/24 04:59:42;;;;;;;24.25;21.83;;;16.50;99.90;;;;;;5107183;28;20062;-68
2022/08/24 05:02:08;;;;;;;24.02;21.63;;;16.50;99.90;;;;;;5107021;28;20097;-67
2022/08/24 05:04:34;;;;;;;16.15;14.65;;;16.50;99.90;;;;;;5091091;28;20496;-67
2022/08/24 05:06:59;;;;;;;15.40;14.10;;;16.50;99.90;;;;;;5108891;28;20398;-68
2022/08/24 05:09:25;;;;;;;17.17;15.63;;;16.50;99.90;;;;;;5119472;28;20040;-66
2022/08/24 05:11:52;;;;;;;18.73;16.95;;;16.50;99.90;;;;;;5111746;28;20121;-67
2022/08/24 05:14:17;;;;;;;19.02;17.23;;;16.50;99.90;;;;;;5119033;28;20497;-68
2022/08/24 05:16:43;;;;;;;19.60;17.90;;;16.50;99.90;;;;;;5108409;28;20035;-66
2022/08/24 05:19:11;;;;;;;21.30;19.40;;;16.60;99.90;;;;;;5117761;28;20043;-66
2022/08/24 05:21:38;;;;;;;23.60;21.08;;;16.60;99.90;;;;;;5101201;28;20176;-69
2022/08/24 05:24:04;;;;;;;25.48;22.98;;;16.70;99.90;;;;;;5113470;28;20055;-66
2022/08/24 05:26:30;;;;;;;22.77;20.65;;;16.70;99.90;;;;;;5089416;28;20513;-68
2022/08/24 05:28:59;;;;;;;22.20;20.20;;;16.70;99.90;;;;;;5109610;28;20172;-69
2022/08/24 05:31:27;;;;;;;21.55;19.50;;;16.70;99.90;;;;;;5107357;28;20039;-68
2022/08/24 05:33:52;;;;;;;24.35;21.95;;;16.70;99.90;;;;;;5106043;28;20052;-66
2022/08/24 05:36:23;;;;;;;26.55;23.85;;;16.80;99.90;;;;;;5107711;28;20040;-69
2022/08/24 05:38:52;;;;;;;30.33;27.17;;;16.80;99.90;;;;;;5126501;28;20043;-67
2022/08/24 05:41:18;;;;;;;30.90;27.83;;;16.90;99.90;;;;;;5090042;28;20124;-65
2022/08/24 05:43:44;;;;;;;33.28;29.98;;;16.90;99.90;;;;;;5125964;27;21342;-67
2022/08/24 05:46:10;;;;;;;31.00;28.00;;;17.00;99.90;;;;;;5095253;28;20027;-69
2022/08/24 05:48:37;;;;;;;27.50;24.98;;;17.00;99.90;;;;;;5132546;27;20114;-66
2022/08/24 05:51:04;;;;;;;28.77;26.20;;;17.10;99.90;;;;;;5100758;28;20088;-68
2022/08/24 05:53:30;;;;;;;27.83;25.27;;;17.20;99.90;;;;;;5112147;28;20028;-68
2022/08/24 05:55:56;;;;;;;27.30;24.98;;;17.30;99.90;;;;;;5112178;28;20042;-68
2022/08/24 05:58:21;;;;;;;28.20;25.58;;;17.40;99.90;;;;;;5114691;27;20409;-68
2022/08/24 06:00:49;;;;;;;30.00;27.08;;;17.50;99.90;;;;;;5112041;28;20049;-71
2022/08/24 06:03:15;;;;;;;28.85;26.15;;;17.60;99.90;;;;;;5112054;27;20035;-68
2022/08/24 06:05:42;;;;;;;42.88;38.35;;;17.70;99.90;;;;;;5117564;27;20092;-70
2022/08/24 06:08:08;;;;;;;42.67;38.15;;;17.80;99.90;;;;;;5112501;28;20510;-67
2022/08/24 06:10:48;;;;;;;45.20;40.38;;;18.00;99.90;;;;;;5123219;27;20084;-69
2022/08/24 06:13:15;;;;;;;35.47;31.90;;;18.10;99.90;;;;;;5111304;27;20107;-71
2022/08/24 06:15:41;;;;;;;36.97;33.28;;;18.20;99.90;;;;;;5115662;27;20062;-67
2022/08/24 06:18:07;;;;;;;35.00;31.50;;;18.40;99.90;;;;;;5116037;27;20137;-67
2022/08/24 06:20:38;;;;;;;35.85;32.15;;;18.50;99.90;;;;;;5108404;28;20101;-68
2022/08/24 06:23:04;;;;;;;38.17;34.27;;;18.70;99.90;;;;;;5118937;27;20082;-68
2022/08/24 06:28:14;;;;;;;42.97;38.47;;;19.00;99.90;;;;;;5128772;27;20493;-67
2022/08/24 06:30:41;;;;;;;42.40;38.17;;;19.20;99.90;;;;;;5121056;27;20096;-69
2022/08/24 06:33:08;;;;;;;39.15;35.13;;;19.30;99.90;;;;;;5131399;27;20046;-69
2022/08/24 06:35:33;;;;;;;44.30;37.30;;;19.50;99.90;;;;;;5119140;27;20036;-69
2022/08/24 06:37:59;;;;;;;43.95;39.35;;;19.70;99.90;;;;;;5129221;27;20099;-68
2022/08/24 06:40:26;;;;;;;47.80;42.28;;;19.80;99.90;;;;;;5115438;27;20092;-69
2022/08/24 06:42:52;;;;;;;45.70;41.08;;;20.00;99.90;;;;;;5103294;27;20063;-69
2022/08/24 06:45:18;;;;;;;48.60;43.38;;;20.10;99.90;;;;;;5120256;27;20043;-70
2022/08/24 06:47:44;;;;;;;46.80;42.00;;;20.20;99.90;;;;;;5116020;27;20543;-68
2022/08/24 06:50:10;;;;;;;47.10;41.78;;;20.30;99.90;;;;;;5122910;27;20046;-69
2022/08/24 06:52:38;;;;;;;44.33;39.67;;;20.40;99.90;;;;;;5130647;27;20497;-68
2022/08/24 06:55:04;;;;;;;46.63;41.80;;;20.50;99.90;;;;;;5131764;27;20099;-68
2022/08/24 06:57:30;;;;;;;46.08;41.17;;;20.60;99.90;;;;;;5126215;27;20072;-65
2022/08/24 06:59:56;;;;;;;43.42;39.03;;;20.80;99.90;;;;;;5109461;27;20124;-69
2022/08/24 07:02:22;;;;;;;41.50;37.42;;;21.00;99.90;;;;;;5119343;27;20529;-68
2022/08/24 07:04:48;;;;;;;44.58;39.97;;;21.10;99.90;;;;;;5121438;27;20100;-69
2022/08/24 07:07:15;;;;;;;44.85;40.03;;;21.30;99.90;;;;;;5102390;28;20031;-69
2022/08/24 07:09:41;;;;;;;40.85;36.65;;;21.50;99.90;;;;;;5118099;27;20031;-70
2022/08/24 07:12:06;;;;;;;40.92;36.67;;;21.60;99.90;;;;;;5111366;27;20404;-68
2022/08/24 07:14:32;;;;;;;37.65;33.70;;;21.80;99.90;;;;;;5119334;27;20047;-66
2022/08/24 07:16:58;;;;;;;42.10;37.75;;;21.90;99.90;;;;;;5109784;27;20047;-68
2022/08/24 07:19:24;;;;;;;39.95;35.72;;;22.00;99.90;;;;;;5110200;28;20104;-69
2022/08/24 07:21:50;;;;;;;41.00;36.83;;;22.20;99.90;;;;;;5118876;27;20063;-66
2022/08/24 07:24:15;;;;;;;38.78;34.78;;;22.30;99.90;;;;;;5125081;27;20051;-68
2022/08/24 07:26:41;;;;;;;38.22;34.22;;;22.40;99.90;;;;;;5114018;27;20039;-68
2022/08/24 07:29:14;;;;;;;36.88;32.17;;;22.50;99.90;;;;;;5096157;28;20096;-68
2022/08/24 07:31:41;;;;;;;33.78;30.45;;;22.70;99.90;;;;;;5109392;28;20112;-68
2022/08/24 07:34:08;;;;;;;34.78;29.70;;;22.90;99.90;;;;;;5124324;27;20063;-68
2022/08/24 07:36:35;;;;;;;28.02;25.17;;;23.00;99.90;;;;;;5096900;28;20047;-67
2022/08/24 07:39:01;;;;;;;31.50;28.27;;;23.20;99.90;;;;;;5104408;28;20039;-67
2022/08/24 07:41:27;;;;;;;39.38;35.53;;;23.30;99.90;;;;;;5115024;27;20463;-68
2022/08/24 07:43:53;;;;;;;32.25;28.05;;;23.50;99.90;;;;;;5115796;27;20047;-66
2022/08/24 07:46:19;;;;;;;30.70;27.67;;;23.60;99.90;;;;;;5120166;27;20035;-68
2022/08/24 07:48:45;;;;;;;26.83;24.08;;;23.70;99.90;;;;;;5117504;27;20443;-66
2022/08/24 07:51:14;;;;;;;27.75;24.95;;;23.70;99.90;;;;;;5109778;28;20039;-70
2022/08/24 07:53:40;;;;;;;22.75;20.42;;;24.00;99.90;;;;;;5121635;27;20085;-69
2022/08/24 07:56:06;;;;;;;22.17;19.88;;;24.10;99.90;;;;;;5122502;27;20043;-68
2022/08/24 07:58:32;;;;;;;21.55;19.35;;;24.20;99.90;;;;;;5119162;27;20047;-70
2022/08/24 08:00:59;;;;;;;22.10;17.85;;;24.30;99.90;;;;;;5114438;27;20556;-71
2022/08/24 08:03:26;;;;;;;21.77;19.58;;;24.40;99.90;;;;;;5115497;27;20052;-69
2022/08/24 08:06:05;;;;;;;19.00;17.00;;;24.40;99.90;;;;;;5102087;27;20027;-69
2022/08/24 08:08:33;;;;;;;16.30;14.55;;;24.60;99.90;;;;;;5119800;27;20036;-66
2022/08/24 08:11:00;;;;;;;17.40;13.35;;;24.70;99.90;;;;;;5108309;28;20059;-69
2022/08/24 08:13:26;;;;;;;14.10;11.88;;;24.90;99.90;;;;;;5116221;27;20044;-67
2022/08/24 08:15:51;;;;;;;14.27;11.55;;;25.00;99.90;;;;;;5127206;27;20490;-69
2022/08/24 08:18:18;;;;;;;11.75;9.93;;;25.10;99.90;;;;;;5123850;27;20036;-68
2022/08/24 08:20:44;;;;;;;14.93;12.73;;;25.40;99.90;;;;;;5098709;28;20118;-67
2022/08/24 08:26:00;;;;;;;14.85;11.43;;;25.50;99.90;;;;;;5116753;27;20058;-67
2022/08/24 08:28:31;;;;;;;12.63;9.13;;;25.60;99.90;;;;;;5107917;28;20090;-69
2022/08/24 08:30:58;;;;;;;11.63;9.57;;;25.80;99.90;;;;;;5107967;28;20039;-68
2022/08/24 08:33:24;;;;;;;8.68;7.75;;;25.90;99.90;;;;;;5121125;27;20300;-67
2022/08/24 08:35:55;;;;;;;10.38;7.40;;;26.00;99.90;;;;;;5115465;27;20042;-69
2022/08/24 08:38:21;;;;;;;11.67;9.23;;;26.10;99.90;;;;;;5122274;28;20034;-69
2022/08/24 08:40:59;;;;;;;10.82;7.63;;;26.30;99.90;;;;;;5118217;28;20063;-66
2022/08/24 08:43:31;;;;;;;11.90;8.88;;;26.30;99.90;;;;;;5103914;28;20067;-67
2022/08/24 08:46:02;;;;;;;10.45;8.48;;;26.30;99.90;;;;;;5123829;28;20043;-66
2022/08/24 08:49:05;;;;;;;10.85;7.63;;;26.30;99.90;;;;;;5124631;28;20039;-69
2022/08/24 08:51:41;;;;;;;8.65;6.07;;;26.20;99.90;;;;;;5127580;28;20042;-69
2022/08/24 08:54:30;;;;;;;13.32;7.43;;;26.40;99.90;;;;;;5106950;28;20486;-67
2022/08/24 08:57:23;;;;;;;12.25;6.80;;;26.40;99.90;;;;;;5120797;28;20118;-69
2022/08/24 09:00:16;;;;;;;8.32;5.40;;;26.60;99.90;;;;;;5112261;28;20045;-69
2022/08/24 09:03:20;;;;;;;7.60;6.82;;;26.90;99.90;;;;;;5127400;28;20389;-67
2022/08/24 09:05:57;;;;;;;7.55;5.72;;;27.20;99.90;;;;;;5129808;28;20059;-67
2022/08/24 09:08:53;;;;;;;10.38;5.82;;;27.30;99.90;;;;;;5113867;28;20039;-68
2022/08/24 09:11:57;;;;;;;5.45;4.20;;;27.40;99.90;;;;;;5109074;28;20122;-69
2022/08/24 09:14:26;;;;;;;5.20;4.60;;;27.60;99.80;;;;;;5108210;28;20126;-68
2022/08/24 09:16:54;;;;;;;7.25;4.47;;;27.60;99.90;;;;;;5129746;27;20039;-68
2022/08/24 09:20:18;;;;;;;6.88;4.28;;;27.80;99.90;;;;;;5099526;27;20079;-70
2022/08/24 09:22:47;;;;;;;5.13;3.70;;;28.00;99.90;;;;;;5014101;28;20143;-68
2022/08/24 09:25:27;;;;;;;5.53;3.90;;;27.90;99.40;;;;;;4995118;28;20445;-69
2022/08/24 09:28:26;;;;;;;6.90;4.75;;;28.00;99.50;;;;;;4995564;28;20409;-69
2022/08/24 09:31:09;;;;;;;7.60;5.47;;;28.10;98.90;;;;;;5011700;28;20050;-69
2022/08/24 09:33:44;;;;;;;8.50;5.30;;;27.90;98.60;;;;;;5011421;28;20432;-66
2022/08/24 09:36:25;;;;;;;8.25;4.30;;;27.90;99.00;;;;;;5011700;28;20050;-70
2022/08/24 09:39:04;;;;;;;6.80;5.00;;;28.10;99.70;;;;;;4994769;28;20116;-69
2022/08/24 09:41:50;;;;;;;7.68;5.07;;;28.20;99.00;;;;;;4993363;28;20053;-68
2022/08/24 09:44:25;;;;;;;7.00;5.05;;;28.20;98.50;;;;;;5008389;28;20050;-68
2022/08/24 09:47:20;;;;;;;7.65;4.85;;;28.30;99.00;;;;;;5011257;28;20077;-67
2022/08/24 09:50:16;;;;;;;12.88;6.03;;;28.60;99.00;;;;;;5010753;28;20137;-68
2022/08/24 09:53:09;;;;;;;12.38;5.90;;;28.80;98.00;;;;;;5011414;28;20053;-69
2022/08/24 09:56:05;;;;;;;10.02;4.50;;;28.80;98.00;;;;;;5024143;28;20052;-68
2022/08/24 09:58:43;;;;;;;5.65;4.93;;;29.10;98.30;;;;;;5073897;28;20131;-68
2022/08/24 10:02:00;;;;;;;8.65;4.47;;;29.30;98.10;;;;;;5112120;28;20043;-69
2022/08/24 10:04:41;;;;;;;8.63;5.05;;;29.20;97.30;;;;;;5013648;28;20069;-66
2022/08/24 10:07:10;;;;;;;11.50;4.40;;;29.30;97.00;;;;;;5014186;28;20069;-66
2022/08/24 10:09:38;;;;;;;9.75;6.15;;;29.40;97.60;;;;;;5014057;28;20129;-70
2022/08/24 10:12:18;;;;;;;6.72;3.97;;;29.50;97.40;;;;;;5013576;28;20427;-67
2022/08/24 10:15:03;;;;;;;7.13;4.57;;;29.60;97.20;;;;;;5014015;28;20045;-69
2022/08/24 10:17:47;;;;;;;8.88;3.92;;;29.60;97.00;;;;;;5014062;28;20107;-69
2022/08/24 10:20:19;;;;;;;7.13;3.67;;;29.50;96.20;;;;;;5013852;28;20051;-67
2022/08/24 10:22:54;;;;;;;4.32;3.53;;;29.60;97.10;;;;;;5029715;28;20046;-67
2022/08/24 10:25:44;;;;;;;3.78;2.90;;;29.60;96.40;;;;;;5013515;28;20068;-70
2022/08/24 10:28:37;;;;;;;8.32;3.00;;;30.00;98.10;;;;;;5013565;28;20033;-70
2022/08/24 10:31:37;;;;;;;3.22;2.63;;;30.40;96.80;;;;;;4997186;28;20112;-67
2022/08/24 10:34:09;;;;;;;5.03;3.60;;;30.40;96.10;;;;;;5011208;28;20567;-69
2022/08/24 10:36:52;;;;;;;6.45;3.53;;;30.60;96.10;;;;;;5013216;28;20120;-70
2022/08/24 10:39:42;;;;;;;4.30;2.60;;;30.80;96.00;;;;;;5097379;28;20520;-68
2022/08/24 10:46:24;;;;;;;4.15;3.00;;;31.20;96.00;;;;;;5011516;28;20511;-68
2022/08/24 10:48:58;;;;;;;7.13;2.70;;;31.50;96.10;;;;;;5014835;28;20167;-70
2022/08/24 10:51:46;;;;;;;3.92;2.60;;;31.60;95.40;;;;;;5025873;28;20389;-67
2022/08/24 10:54:12;;;;;;;5.38;3.25;;;31.70;94.60;;;;;;5013083;28;20550;-69
2022/08/24 10:56:59;;;;;;;4.70;2.97;;;31.30;94.60;;;;;;5014086;28;20041;-68
2022/08/24 10:59:30;;;;;;;4.15;2.67;;;31.20;94.60;;;;;;5025732;28;20153;-69
2022/08/24 11:02:04;;;;;;;5.32;3.42;;;31.30;95.20;;;;;;4996261;28;20068;-67
2022/08/24 11:04:31;;;;;;;6.88;2.63;;;31.30;95.00;;;;;;5010812;28;20678;-67
2022/08/24 11:07:17;;;;;;;5.78;2.58;;;31.50;95.00;;;;;;5006225;28;20045;-68
2022/08/24 11:09:55;;;;;;;3.67;1.90;;;31.70;94.50;;;;;;5011494;28;20046;-69
2022/08/24 11:12:24;;;;;;;5.82;2.53;;;31.60;94.20;;;;;;5027153;28;20045;-67
2022/08/24 11:14:50;;;;;;;6.05;2.40;;;31.70;94.60;;;;;;5002514;28;20136;-71
2022/08/24 11:17:21;;;;;;;4.63;2.05;;;31.60;94.60;;;;;;5024689;28;20140;-69
2022/08/24 11:19:48;;;;;;;2.03;1.50;;;31.70;94.50;;;;;;5031092;27;20037;-69
2022/08/24 11:22:29;;;;;;;2.30;1.33;;;31.60;93.80;;;;;;5131383;27;20390;-68
2022/08/24 11:25:02;;;;;;;4.38;1.95;;;31.70;94.40;;;;;;5122997;27;20105;-70
2022/08/24 11:27:33;;;;;;;3.40;1.10;;;31.70;94.20;;;;;;5126980;27;20398;-70
2022/08/24 11:30:11;;;;;;;3.30;1.40;;;31.70;93.60;;;;;;5116466;27;20028;-69
2022/08/24 11:32:42;;;;;;;5.38;1.55;;;31.60;93.30;;;;;;5120152;27;20118;-69
2022/08/24 11:35:17;;;;;;;2.42;1.60;;;31.50;93.60;;;;;;5116552;27;20121;-69
2022/08/24 11:37:44;;;;;;;2.78;1.58;;;31.50;93.70;;;;;;5099613;28;20043;-70
2022/08/24 11:40:12;;;;;;;4.28;1.35;;;31.40;93.30;;;;;;5092204;28;20043;-67
2022/08/24 11:42:57;;;;;;;3.67;1.42;;;31.40;93.20;;;;;;5121727;27;20081;-70
2022/08/24 11:45:39;;;;;;;1.33;1.00;;;31.40;93.20;;;;;;5118850;27;20036;-68
2022/08/24 11:48:40;;;;;;;1.63;1.20;;;31.60;92.90;;;;;;5112736;27;20039;-69
2022/08/24 11:51:20;;;;;;;1.92;0.88;;;31.40;92.10;;;;;;5089750;27;20477;-70
2022/08/24 11:54:23;;;;;;;1.30;0.60;;;31.50;93.60;;;;;;5115530;27;20054;-67
2022/08/24 11:57:14;;;;;;;1.58;0.75;;;31.60;92.20;;;;;;5110455;28;20043;-68
2022/08/24 12:00:07;;;;;;;1.10;0.77;;;31.50;91.80;;;;;;5093381;28;20074;-68
2022/08/24 12:02:57;;;;;;;1.00;0.70;;;31.40;92.00;;;;;;5109940;28;20289;-69
2022/08/24 12:05:36;;;;;;;3.15;1.20;;;31.30;91.80;;;;;;5129684;27;20047;-69
2022/08/24 12:08:13;;;;;;;2.63;1.17;;;31.10;91.80;;;;;;5113423;27;20031;-67
2022/08/24 12:11:05;;;;;;;2.05;1.20;;;31.10;92.40;;;;;;5130432;27;20046;-70
2022/08/24 12:13:52;;;;;;;3.58;1.00;;;31.10;92.20;;;;;;5109922;28;20156;-69
2022/08/24 12:16:28;;;;;;;1.00;0.90;;;31.10;92.90;;;;;;5109604;28;20114;-68
2022/08/24 12:18:53;;;;;;;1.90;0.88;;;30.70;91.70;;;;;;5126930;27;20031;-70
2022/08/24 12:21:23;;;;;;;1.27;0.82;;;30.80;92.40;;;;;;5113132;27;20034;-65
2022/08/24 12:23:52;;;;;;;2.42;1.02;;;30.70;92.50;;;;;;5111033;28;20201;-69
2022/08/24 12:26:31;;;;;;;2.60;1.10;;;30.80;92.50;;;;;;5129569;27;20125;-67
2022/08/24 12:29:27;;;;;;;1.08;0.90;;;30.70;92.00;;;;;;5130806;27;20038;-71
2022/08/24 12:32:01;;;;;;;2.67;0.98;;;30.60;92.20;;;;;;5130104;27;20114;-69
2022/08/24 12:34:54;;;;;;;1.15;0.88;;;30.40;92.60;;;;;;5111246;27;20042;-67
2022/08/24 12:37:43;;;;;;;1.58;0.85;;;30.50;92.80;;;;;;5111855;28;20046;-67
2022/08/24 12:40:21;;;;;;;1.63;0.90;;;30.50;92.80;;;;;;5126487;28;20041;-67
2022/08/24 12:42:59;;;;;;;0.85;0.85;;;30.50;93.10;;;;;;5127875;28;20527;-69
2022/08/24 12:45:26;;;;;;;1.17;1.10;;;30.50;93.00;;;;;;5119746;28;20042;-67
2022/08/24 12:48:16;;;;;;;2.70;0.90;;;30.50;92.90;;;;;;5129924;28;20043;-68
2022/08/24 12:50:45;;;;;;;2.40;1.05;;;30.30;92.70;;;;;;5129889;27;20046;-66
2022/08/24 12:53:17;;;;;;;3.10;1.10;;;30.30;92.60;;;;;;5117073;27;20036;-69
2022/08/24 12:55:49;;;;;;;;;;;30.20;93.30;;;;;;5101130;27;20042;-68
2022/08/24 12:58:46;;;;;;;1.83;1.30;;;30.10;92.90;;;;;;5102238;28;19923;-70
2022/08/24 13:01:13;;;;;;;1.13;0.90;;;30.00;92.70;;;;;;5131450;27;20042;-69
2022/08/24 13:03:42;;;;;;;1.00;0.90;;;29.80;92.70;;;;;;5124030;27;20123;-67
2022/08/24 13:06:26;;;;;;;2.60;1.13;;;29.90;92.90;;;;;;5118827;27;20424;-68
2022/08/24 13:09:04;;;;;;;1.35;1.20;;;29.80;92.90;;;;;;5132738;27;20042;-66